Time;durP1;ratioP1;P1;durP2;ratioP2;P2;SDS_P1;SDS_P2;PMS_P1;PMS_P2;Temp;Humidity;BMP_temperature;BMP_pressure;BME280_temperature;BME280_humidity;BME280_pressure;Samples;Min_cycle;Max_cycle;Signal;HPM_P1;HPM_P2
2021/10/14 00:00:14;;;;;;;1.10;1.00;;;21.60;66.50;;;;;;5084413;28;20024;-36
2021/10/14 00:02:40;;;;;;;1.00;1.00;;;21.60;66.80;;;;;;5084612;28;20021;-36
2021/10/14 00:05:06;;;;;;;1.15;1.05;;;21.60;67.00;;;;;;5083797;28;20059;-36
2021/10/14 00:07:32;;;;;;;1.35;1.05;;;21.60;66.00;;;;;;5084185;28;20024;-36
2021/10/14 00:09:58;;;;;;;1.55;1.00;;;21.60;66.40;;;;;;5097398;28;20028;-56
2021/10/14 00:12:25;;;;;;;0.90;0.90;;;21.60;66.50;;;;;;5104357;28;20028;-37
2021/10/14 00:14:51;;;;;;;1.20;1.10;;;21.60;67.50;;;;;;5104309;28;20065;-36
2021/10/14 00:17:17;;;;;;;1.10;1.00;;;21.60;67.80;;;;;;5104503;28;20016;-36
2021/10/14 00:19:43;;;;;;;1.00;0.90;;;21.70;67.60;;;;;;5103689;28;20047;-36
2021/10/14 00:22:09;;;;;;;1.75;1.38;;;21.70;67.60;;;;;;5104076;28;20024;-36
2021/10/14 00:24:35;;;;;;;1.00;1.00;;;21.70;67.40;;;;;;5103547;28;20044;-37
2021/10/14 00:27:02;;;;;;;1.17;1.08;;;21.70;67.40;;;;;;5103743;28;20038;-36
2021/10/14 00:29:28;;;;;;;3.03;1.20;;;21.70;67.80;;;;;;5103077;28;20047;-37
2021/10/14 00:31:54;;;;;;;1.25;0.93;;;21.70;67.80;;;;;;5102785;28;20077;-36
2021/10/14 00:34:20;;;;;;;1.15;1.05;;;21.70;68.00;;;;;;5103211;28;20021;-37
2021/10/14 00:36:46;;;;;;;1.55;1.27;;;21.70;68.20;;;;;;5103270;28;20024;-37
2021/10/14 00:39:12;;;;;;;1.55;1.30;;;21.70;68.10;;;;;;5103461;28;20031;-36
2021/10/14 00:41:39;;;;;;;1.15;0.90;;;21.70;68.10;;;;;;5103445;28;20111;-37
2021/10/14 00:44:05;;;;;;;;;;;21.80;68.20;;;;;;5103661;28;20419;-36
2021/10/14 00:46:31;;;;;;;1.40;1.00;;;21.80;68.40;;;;;;5103498;28;19934;-37
2021/10/14 00:48:58;;;;;;;1.23;1.13;;;21.80;68.50;;;;;;5102037;28;20049;-36
2021/10/14 00:51:24;;;;;;;1.40;1.20;;;21.80;68.60;;;;;;5103858;28;20038;-37
2021/10/14 00:53:50;;;;;;;1.50;1.35;;;21.80;68.70;;;;;;5103165;28;20028;-36
2021/10/14 00:56:16;;;;;;;1.88;1.20;;;21.80;68.70;;;;;;5083759;28;20028;-36
2021/10/14 00:58:43;;;;;;;1.57;1.00;;;21.80;68.80;;;;;;5085694;28;20016;-37
2021/10/14 01:01:09;;;;;;;1.10;1.00;;;21.80;68.70;;;;;;5103712;28;20262;-37
2021/10/14 01:03:35;;;;;;;1.38;1.20;;;21.80;68.70;;;;;;5103126;28;20020;-36
2021/10/14 01:06:01;;;;;;;1.33;1.10;;;21.80;68.70;;;;;;5103212;28;20063;-37
2021/10/14 01:08:27;;;;;;;1.40;1.30;;;21.90;68.70;;;;;;5103073;28;20024;-37
2021/10/14 01:10:53;;;;;;;1.02;0.90;;;21.90;68.60;;;;;;5103221;28;20821;-37
2021/10/14 01:13:20;;;;;;;1.20;1.10;;;21.90;68.80;;;;;;5103091;28;20031;-37
2021/10/14 01:15:46;;;;;;;1.05;1.05;;;21.90;69.60;;;;;;5101338;28;20022;-37
2021/10/14 01:18:12;;;;;;;0.98;0.88;;;21.90;68.90;;;;;;5102794;28;20032;-37
2021/10/14 01:20:39;;;;;;;0.95;0.95;;;21.90;69.00;;;;;;5082319;28;20032;-37
2021/10/14 01:23:05;;;;;;;0.93;0.82;;;21.90;68.90;;;;;;5101634;28;20067;-37
2021/10/14 01:25:31;;;;;;;2.13;1.20;;;21.90;68.80;;;;;;5102922;28;20496;-37
2021/10/14 01:27:57;;;;;;;4.03;1.33;;;21.90;68.80;;;;;;5102676;28;20020;-37
2021/10/14 01:30:23;;;;;;;0.90;0.77;;;21.90;68.80;;;;;;5101562;28;20081;-37
2021/10/14 01:32:50;;;;;;;1.48;1.10;;;21.90;69.50;;;;;;5101617;28;20020;-36
2021/10/14 01:35:17;;;;;;;2.55;1.33;;;22.00;68.80;;;;;;5103040;28;20030;-37
2021/10/14 01:37:43;;;;;;;1.98;1.00;;;22.00;68.70;;;;;;5102931;28;20020;-37
2021/10/14 01:40:10;;;;;;;1.27;1.17;;;22.00;68.70;;;;;;5102852;28;20031;-37
2021/10/14 01:42:36;;;;;;;0.77;0.77;;;22.00;68.70;;;;;;5102731;28;20032;-37
2021/10/14 01:45:03;;;;;;;1.20;1.10;;;22.00;68.70;;;;;;5102151;28;20036;-36
2021/10/14 01:47:30;;;;;;;1.60;1.17;;;22.00;68.70;;;;;;5102863;28;20024;-36
2021/10/14 01:49:56;;;;;;;1.08;0.98;;;22.00;68.70;;;;;;5101955;28;20046;-37
2021/10/14 01:52:22;;;;;;;1.27;1.17;;;22.00;68.70;;;;;;5086131;28;20020;-37
2021/10/14 01:54:49;;;;;;;1.13;1.02;;;22.00;68.60;;;;;;5087537;28;20722;-37
2021/10/14 01:57:15;;;;;;;1.10;1.00;;;22.00;68.60;;;;;;5102432;28;20028;-37
2021/10/14 01:59:41;;;;;;;2.95;1.17;;;22.00;68.60;;;;;;5102282;28;20032;-37
2021/10/14 02:02:07;;;;;;;2.08;1.20;;;22.00;68.60;;;;;;5102184;28;20039;-37
2021/10/14 02:04:33;;;;;;;3.70;1.23;;;22.00;68.50;;;;;;5100903;28;20076;-37
2021/10/14 02:07:00;;;;;;;1.77;1.27;;;22.00;68.60;;;;;;5102496;28;20028;-37
2021/10/14 02:09:26;;;;;;;1.20;1.10;;;22.00;68.60;;;;;;5102220;28;20027;-37
2021/10/14 02:11:52;;;;;;;1.10;1.00;;;22.00;68.50;;;;;;5101522;28;20133;-37
2021/10/14 02:14:18;;;;;;;1.38;1.27;;;22.00;68.60;;;;;;5100095;28;20120;-37
2021/10/14 02:16:44;;;;;;;1.23;1.13;;;22.00;68.60;;;;;;5101704;28;20016;-37
2021/10/14 02:19:10;;;;;;;1.40;1.30;;;22.00;68.60;;;;;;5092467;28;20029;-37
2021/10/14 02:21:37;;;;;;;1.40;1.30;;;22.00;68.70;;;;;;5100294;28;20035;-37
2021/10/14 02:24:03;;;;;;;0.90;0.90;;;22.00;68.70;;;;;;5105654;28;20056;-36
2021/10/14 02:26:29;;;;;;;2.37;1.37;;;22.00;68.70;;;;;;5106379;28;20028;-37
2021/10/14 02:28:55;;;;;;;1.33;1.23;;;22.00;69.20;;;;;;5105631;28;20020;-37
2021/10/14 02:31:21;;;;;;;1.63;1.25;;;22.00;68.80;;;;;;5106380;28;20028;-37
2021/10/14 02:33:47;;;;;;;1.15;1.05;;;22.00;68.80;;;;;;5105829;28;20091;-37
2021/10/14 02:36:14;;;;;;;1.80;1.35;;;22.00;68.80;;;;;;5105887;28;20020;-37
2021/10/14 02:38:40;;;;;;;1.87;1.50;;;22.00;68.80;;;;;;5105787;28;20038;-37
2021/10/14 02:41:06;;;;;;;1.40;1.25;;;22.00;68.70;;;;;;5105805;28;20027;-37
2021/10/14 02:43:32;;;;;;;2.75;1.40;;;22.00;68.70;;;;;;5105236;28;20023;-37
2021/10/14 02:45:58;;;;;;;1.42;1.33;;;22.00;68.80;;;;;;5106148;28;20048;-37
2021/10/14 02:48:25;;;;;;;1.77;1.20;;;22.10;68.80;;;;;;5105407;28;20024;-37
2021/10/14 02:50:51;;;;;;;2.72;1.25;;;22.00;68.70;;;;;;5105925;28;20114;-37
2021/10/14 02:53:17;;;;;;;1.85;1.40;;;22.00;68.70;;;;;;5105622;28;20042;-37
2021/10/14 02:55:43;;;;;;;1.58;1.25;;;22.00;68.70;;;;;;5105832;28;20028;-37
2021/10/14 02:58:09;;;;;;;1.60;1.33;;;22.00;68.70;;;;;;5104935;28;20032;-37
2021/10/14 03:00:35;;;;;;;1.40;1.30;;;22.00;68.70;;;;;;5105546;28;20020;-36
2021/10/14 03:03:02;;;;;;;1.52;1.25;;;22.00;68.70;;;;;;5105231;28;20060;-37
2021/10/14 03:05:28;;;;;;;1.60;1.50;;;22.00;68.80;;;;;;5104634;28;20194;-37
2021/10/14 03:07:54;;;;;;;1.48;1.30;;;22.00;68.70;;;;;;5105668;28;20070;-37
2021/10/14 03:10:20;;;;;;;1.30;1.20;;;22.00;68.80;;;;;;5104325;28;20036;-37
2021/10/14 03:12:46;;;;;;;1.48;1.30;;;22.00;68.80;;;;;;5105493;28;20055;-37
2021/10/14 03:15:12;;;;;;;1.80;1.40;;;22.00;68.80;;;;;;5105044;28;20020;-37
2021/10/14 03:17:38;;;;;;;1.52;1.42;;;22.00;68.90;;;;;;5104881;28;20032;-37
2021/10/14 03:20:05;;;;;;;1.33;1.23;;;22.00;68.80;;;;;;5104925;28;20031;-37
2021/10/14 03:22:31;;;;;;;1.30;1.20;;;22.00;68.80;;;;;;5103509;28;20024;-37
2021/10/14 03:24:57;;;;;;;1.60;1.50;;;22.00;68.90;;;;;;5105280;28;20036;-37
2021/10/14 03:27:23;;;;;;;1.42;1.33;;;22.00;68.90;;;;;;5104481;28;20091;-37
2021/10/14 03:29:50;;;;;;;1.30;1.20;;;22.00;68.90;;;;;;5104480;28;20027;-37
2021/10/14 03:32:16;;;;;;;1.70;1.40;;;22.00;68.90;;;;;;5105197;28;20087;-37
2021/10/14 03:34:42;;;;;;;2.22;1.30;;;22.00;68.90;;;;;;5104310;28;20032;-37
2021/10/14 03:37:08;;;;;;;1.75;1.55;;;22.00;68.90;;;;;;5102538;28;20024;-37
2021/10/14 03:39:34;;;;;;;1.67;1.58;;;22.00;68.90;;;;;;5103860;28;20024;-37
2021/10/14 03:42:00;;;;;;;1.52;1.40;;;22.00;68.90;;;;;;5104546;28;20020;-37
2021/10/14 03:44:26;;;;;;;2.15;1.55;;;22.00;68.90;;;;;;5104525;28;20054;-37
2021/10/14 03:46:53;;;;;;;1.60;1.50;;;22.00;68.90;;;;;;5101666;28;20020;-37
2021/10/14 03:49:19;;;;;;;1.40;1.30;;;22.00;68.90;;;;;;5104847;28;20024;-37
2021/10/14 03:51:45;;;;;;;1.70;1.60;;;22.00;68.90;;;;;;5104493;28;20044;-37
2021/10/14 03:54:11;;;;;;;1.95;1.65;;;22.00;69.00;;;;;;5104690;28;20032;-37
2021/10/14 03:56:37;;;;;;;1.45;1.20;;;22.00;69.00;;;;;;5104492;28;20028;-37
2021/10/14 03:59:03;;;;;;;1.63;1.50;;;22.00;69.00;;;;;;5104654;28;20023;-36
2021/10/14 04:01:29;;;;;;;1.60;1.50;;;21.90;69.00;;;;;;5103824;28;20050;-37
2021/10/14 04:03:55;;;;;;;1.65;1.30;;;21.90;69.00;;;;;;5103142;28;20659;-37
2021/10/14 04:06:22;;;;;;;1.70;1.60;;;21.90;69.00;;;;;;5104047;28;20114;-37
2021/10/14 04:08:48;;;;;;;1.70;1.60;;;21.90;69.00;;;;;;5098654;28;20035;-37
2021/10/14 04:11:14;;;;;;;1.70;1.60;;;21.90;69.10;;;;;;5104046;28;20031;-36
2021/10/14 04:13:42;;;;;;;1.60;1.50;;;21.90;69.10;;;;;;5104488;28;20099;-37
2021/10/14 04:16:08;;;;;;;1.70;1.60;;;21.90;69.20;;;;;;5104256;28;20023;-37
2021/10/14 04:18:36;;;;;;;1.55;1.45;;;21.90;69.20;;;;;;5084904;28;20024;-37
2021/10/14 04:21:03;;;;;;;2.53;1.67;;;21.90;69.20;;;;;;5096700;28;20131;-37
2021/10/14 04:23:29;;;;;;;1.73;1.63;;;21.90;69.20;;;;;;5103756;28;20493;-37
2021/10/14 04:25:56;;;;;;;2.22;1.92;;;21.90;69.20;;;;;;5103891;28;20040;-37
2021/10/14 04:28:22;;;;;;;1.75;1.42;;;21.90;69.20;;;;;;5101304;28;20069;-36
2021/10/14 04:30:48;;;;;;;1.40;1.30;;;21.90;69.20;;;;;;5103455;28;20016;-37
2021/10/14 04:33:14;;;;;;;1.90;1.80;;;21.90;69.20;;;;;;5103669;28;20038;-37
2021/10/14 04:35:40;;;;;;;1.75;1.65;;;21.90;69.20;;;;;;5103775;28;20040;-37
2021/10/14 04:38:07;;;;;;;1.50;1.40;;;21.90;69.20;;;;;;5103192;28;20027;-37
2021/10/14 04:40:33;;;;;;;1.88;1.77;;;21.90;69.20;;;;;;5103761;28;20028;-37
2021/10/14 04:42:59;;;;;;;1.90;1.70;;;21.90;69.30;;;;;;5103391;28;20093;-37
2021/10/14 04:45:25;;;;;;;1.58;1.48;;;21.90;69.30;;;;;;5103365;28;20028;-37
2021/10/14 04:47:53;;;;;;;1.70;1.60;;;21.90;69.40;;;;;;5103648;28;20024;-37
2021/10/14 04:50:19;;;;;;;2.20;1.85;;;21.90;69.40;;;;;;5103556;28;20038;-37
2021/10/14 04:52:45;;;;;;;2.70;1.73;;;21.90;69.40;;;;;;5103438;28;20516;-43
2021/10/14 04:55:12;;;;;;;2.42;1.80;;;21.90;69.50;;;;;;5102958;28;20036;-37
2021/10/14 04:57:38;;;;;;;2.08;1.60;;;21.80;69.50;;;;;;5101971;28;20086;-37
2021/10/14 05:00:05;;;;;;;2.33;2.13;;;21.80;69.50;;;;;;5103304;28;20032;-37
2021/10/14 05:02:31;;;;;;;2.00;1.90;;;21.80;69.60;;;;;;5103275;28;20058;-37
2021/10/14 05:04:57;;;;;;;1.60;1.50;;;21.80;69.60;;;;;;5103087;28;20052;-37
2021/10/14 05:07:23;;;;;;;1.77;1.67;;;21.80;69.60;;;;;;5103089;28;20048;-37
2021/10/14 05:09:49;;;;;;;1.70;1.60;;;21.80;69.60;;;;;;5083207;28;20028;-37
2021/10/14 05:12:15;;;;;;;1.70;1.60;;;21.80;69.70;;;;;;5101549;28;20024;-37
2021/10/14 05:14:42;;;;;;;2.60;1.90;;;21.80;69.60;;;;;;5103151;28;20119;-37
2021/10/14 05:17:08;;;;;;;2.45;1.95;;;21.80;69.70;;;;;;5103048;28;20027;-37
2021/10/14 05:19:34;;;;;;;2.78;1.83;;;21.80;69.70;;;;;;5103162;28;20055;-37
2021/10/14 05:22:00;;;;;;;1.80;1.70;;;21.80;69.70;;;;;;5102605;28;20054;-37
2021/10/14 05:24:26;;;;;;;1.77;1.67;;;21.80;69.70;;;;;;5102585;28;20063;-37
2021/10/14 05:26:52;;;;;;;2.35;1.73;;;21.80;69.70;;;;;;5102581;28;20023;-37
2021/10/14 05:29:18;;;;;;;1.77;1.60;;;21.80;69.70;;;;;;5102479;28;20054;-37
2021/10/14 05:31:44;;;;;;;2.03;1.83;;;21.80;69.80;;;;;;5102828;28;20463;-37
2021/10/14 05:34:11;;;;;;;2.15;1.77;;;21.80;69.80;;;;;;5101559;28;20039;-37
2021/10/14 05:36:37;;;;;;;2.20;1.77;;;21.80;69.80;;;;;;5102966;28;20030;-37
2021/10/14 05:39:03;;;;;;;2.60;1.90;;;21.80;69.90;;;;;;5102517;28;20379;-37
2021/10/14 05:41:29;;;;;;;2.23;2.03;;;21.80;69.80;;;;;;5102687;28;20058;-37
2021/10/14 05:43:56;;;;;;;1.90;1.77;;;21.70;69.90;;;;;;5102402;28;20024;-37
2021/10/14 05:46:22;;;;;;;2.22;1.60;;;21.70;69.90;;;;;;5102601;28;20028;-37
2021/10/14 05:48:48;;;;;;;2.85;1.80;;;21.70;69.90;;;;;;5102613;28;20080;-37
2021/10/14 05:51:15;;;;;;;2.10;2.00;;;21.70;69.90;;;;;;5101989;28;20050;-37
2021/10/14 05:53:41;;;;;;;2.38;2.17;;;21.70;70.00;;;;;;5095073;28;20036;-37
2021/10/14 05:56:07;;;;;;;2.53;1.98;;;21.70;70.00;;;;;;5082496;28;20029;-37
2021/10/14 05:58:33;;;;;;;2.00;1.80;;;21.70;70.00;;;;;;5080730;28;20029;-37
2021/10/14 06:00:59;;;;;;;2.30;2.10;;;21.70;70.00;;;;;;5089831;28;20032;-37
2021/10/14 06:03:26;;;;;;;2.55;2.35;;;21.70;70.00;;;;;;5102379;28;20104;-37
2021/10/14 06:05:52;;;;;;;2.30;1.90;;;21.70;70.00;;;;;;5102324;28;20047;-37
2021/10/14 06:08:18;;;;;;;2.30;2.10;;;21.70;70.00;;;;;;5094686;28;20021;-37
2021/10/14 06:10:44;;;;;;;2.10;1.90;;;21.70;70.40;;;;;;5082369;28;20020;-37
2021/10/14 06:13:10;;;;;;;2.22;2.03;;;21.70;70.10;;;;;;5081750;28;20063;-37
2021/10/14 06:15:36;;;;;;;2.33;1.90;;;21.70;70.10;;;;;;5082250;28;20021;-37
2021/10/14 06:18:02;;;;;;;1.90;1.70;;;21.70;70.10;;;;;;5082676;28;20025;-37
2021/10/14 06:20:29;;;;;;;2.28;1.90;;;21.70;70.10;;;;;;5102595;28;20043;-37
2021/10/14 06:22:55;;;;;;;2.05;1.80;;;21.60;70.10;;;;;;5102293;28;20395;-37
2021/10/14 06:25:21;;;;;;;2.20;2.00;;;21.60;70.20;;;;;;5101997;28;20046;-37
2021/10/14 06:27:47;;;;;;;2.40;2.20;;;21.70;70.20;;;;;;5102187;28;20030;-37
2021/10/14 06:30:13;;;;;;;1.80;1.63;;;21.60;70.20;;;;;;5102366;28;20032;-37
2021/10/14 06:32:39;;;;;;;2.25;2.00;;;21.60;70.20;;;;;;5102478;28;20031;-37
2021/10/14 06:35:06;;;;;;;2.00;1.80;;;21.60;70.30;;;;;;5101889;28;20127;-37
2021/10/14 06:37:32;;;;;;;2.45;2.25;;;21.60;70.30;;;;;;5102079;28;20076;-37
2021/10/14 06:39:59;;;;;;;2.05;1.85;;;21.60;70.30;;;;;;5102723;28;20032;-37
2021/10/14 06:42:25;;;;;;;2.30;2.10;;;21.60;70.20;;;;;;5102313;28;20027;-37
2021/10/14 06:44:51;;;;;;;2.35;1.90;;;21.60;70.30;;;;;;5101759;28;20044;-37
2021/10/14 06:47:17;;;;;;;2.65;1.98;;;21.60;70.30;;;;;;5102184;28;20039;-37
2021/10/14 06:49:43;;;;;;;2.13;2.00;;;21.60;70.30;;;;;;5102123;28;20051;-37
2021/10/14 06:52:09;;;;;;;3.00;1.77;;;21.60;70.30;;;;;;5102262;28;20024;-37
2021/10/14 06:54:36;;;;;;;1.92;1.83;;;21.60;70.40;;;;;;5101752;28;20028;-37
2021/10/14 06:57:04;;;;;;;2.13;1.80;;;21.60;70.40;;;;;;5102105;28;20039;-37
2021/10/14 06:59:31;;;;;;;1.95;1.83;;;21.60;70.40;;;;;;5102089;28;20036;-37
2021/10/14 07:01:57;;;;;;;2.08;1.85;;;21.60;70.50;;;;;;5103303;28;20016;-37
2021/10/14 07:04:24;;;;;;;1.92;1.75;;;21.60;70.50;;;;;;5104886;28;20674;-37
2021/10/14 07:06:50;;;;;;;3.67;2.00;;;21.60;70.50;;;;;;5105810;28;20035;-37
2021/10/14 07:09:16;;;;;;;2.40;2.20;;;21.60;70.50;;;;;;5089666;28;20031;-37
2021/10/14 07:12:07;;;;;;;2.65;2.17;;;21.60;70.60;;;;;;5085290;28;20025;-37
2021/10/14 07:14:31;;;;;;;2.17;2.00;;;21.50;70.50;;;;;;5098861;28;20067;-37
2021/10/14 07:16:57;;;;;;;2.63;1.95;;;21.50;70.50;;;;;;5096191;28;20029;-37
2021/10/14 07:19:23;;;;;;;2.28;1.90;;;21.50;70.50;;;;;;5087619;28;20024;-37
2021/10/14 07:21:49;;;;;;;1.80;1.70;;;21.50;70.60;;;;;;5105573;28;20103;-37
2021/10/14 07:24:17;;;;;;;2.00;1.83;;;21.50;70.60;;;;;;5104715;28;20036;-37
2021/10/14 07:26:44;;;;;;;2.25;2.05;;;21.50;70.60;;;;;;5104959;28;20027;-37
2021/10/14 07:29:10;;;;;;;2.28;2.08;;;21.50;70.70;;;;;;5105295;28;20024;-37
2021/10/14 07:31:36;;;;;;;2.22;2.03;;;21.50;70.60;;;;;;5105563;28;20131;-37
2021/10/14 07:34:02;;;;;;;1.90;1.65;;;21.50;70.60;;;;;;5104664;28;20024;-37
2021/10/14 07:36:29;;;;;;;2.07;1.90;;;21.50;70.70;;;;;;5105442;28;20028;-37
2021/10/14 07:38:55;;;;;;;2.05;1.85;;;21.50;70.70;;;;;;5105094;28;20272;-37
2021/10/14 07:41:21;;;;;;;3.08;2.08;;;21.40;70.60;;;;;;5105147;28;20039;-37
2021/10/14 07:43:47;;;;;;;2.42;2.22;;;21.40;70.70;;;;;;5105066;28;20024;-37
2021/10/14 07:46:13;;;;;;;2.40;2.20;;;21.40;70.70;;;;;;5104989;28;20024;-37
2021/10/14 07:48:39;;;;;;;2.10;1.90;;;21.40;70.80;;;;;;5101835;28;20421;-37
2021/10/14 07:51:07;;;;;;;2.28;1.85;;;21.40;70.70;;;;;;5084772;28;20024;-37
2021/10/14 07:53:33;;;;;;;2.15;1.90;;;21.40;70.80;;;;;;5094820;28;20034;-37
2021/10/14 07:55:59;;;;;;;4.07;2.60;;;21.40;70.80;;;;;;5104484;28;20031;-37
2021/10/14 07:58:25;;;;;;;2.35;2.00;;;21.40;70.80;;;;;;5104930;28;20837;-37
2021/10/14 08:00:52;;;;;;;2.75;1.90;;;21.40;70.90;;;;;;5104944;28;20020;-37
2021/10/14 08:03:18;;;;;;;2.50;2.30;;;21.40;70.90;;;;;;5104800;28;20111;-37
2021/10/14 08:05:44;;;;;;;2.20;1.88;;;21.40;70.90;;;;;;5104291;28;20636;-37
2021/10/14 08:08:10;;;;;;;2.22;2.03;;;21.40;70.90;;;;;;5105031;28;20034;-37
2021/10/14 08:10:36;;;;;;;2.05;1.90;;;21.40;70.90;;;;;;5104709;28;20384;-37
2021/10/14 08:13:03;;;;;;;2.13;1.92;;;21.40;71.00;;;;;;5102816;28;20043;-37
2021/10/14 08:15:29;;;;;;;2.30;2.10;;;21.30;70.90;;;;;;5103895;28;20036;-37
2021/10/14 08:17:55;;;;;;;2.47;2.27;;;21.30;71.00;;;;;;5104377;28;20053;-37
2021/10/14 08:20:21;;;;;;;2.35;2.13;;;21.40;71.00;;;;;;5104534;28;20032;-37
2021/10/14 08:22:49;;;;;;;2.17;1.98;;;21.30;71.00;;;;;;5104302;28;20020;-37
2021/10/14 08:25:15;;;;;;;2.30;1.92;;;21.30;71.10;;;;;;5104027;28;20057;-37
2021/10/14 08:27:42;;;;;;;2.08;1.88;;;21.30;71.10;;;;;;5104222;28;20082;-37
2021/10/14 08:30:09;;;;;;;2.78;1.90;;;21.30;71.10;;;;;;5103913;28;20028;-37
2021/10/14 08:32:35;;;;;;;2.72;2.30;;;21.30;71.10;;;;;;5104255;28;20484;-37
2021/10/14 08:35:01;;;;;;;2.20;1.95;;;21.30;71.10;;;;;;5103868;28;20043;-37
2021/10/14 08:37:29;;;;;;;2.30;2.00;;;21.30;71.10;;;;;;5104234;28;20087;-37
2021/10/14 08:39:55;;;;;;;2.22;2.03;;;21.30;71.20;;;;;;5104102;28;20032;-37
2021/10/14 08:42:22;;;;;;;2.20;2.00;;;21.30;71.10;;;;;;5104072;28;20020;-37
2021/10/14 08:44:48;;;;;;;2.00;1.85;;;21.30;71.20;;;;;;5099915;28;20057;-37
2021/10/14 08:47:15;;;;;;;2.58;1.70;;;21.20;71.20;;;;;;5093955;28;20039;-37
2021/10/14 08:49:45;;;;;;;2.25;2.08;;;21.20;71.20;;;;;;5099305;28;20126;-37
2021/10/14 08:52:12;;;;;;;2.50;2.15;;;21.30;71.20;;;;;;5103907;28;20032;-37
2021/10/14 08:54:38;;;;;;;2.13;2.00;;;21.30;71.30;;;;;;5103993;28;20646;-37
2021/10/14 08:57:04;;;;;;;2.28;2.08;;;21.20;71.20;;;;;;5103632;28;20709;-37
2021/10/14 08:59:30;;;;;;;2.00;1.90;;;21.20;71.20;;;;;;5103893;28;20024;-37
2021/10/14 09:02:14;;;;;;;2.33;2.10;;;21.20;71.30;;;;;;5103953;28;20052;-37
2021/10/14 09:04:48;;;;;;;2.00;1.80;;;21.20;71.30;;;;;;5103296;28;20048;-37
2021/10/14 09:07:15;;;;;;;2.35;2.15;;;21.20;71.30;;;;;;5103386;28;20043;-37
2021/10/14 09:09:42;;;;;;;2.33;2.13;;;21.20;71.40;;;;;;5103643;28;20560;-37
2021/10/14 09:12:09;;;;;;;2.47;2.27;;;21.20;71.40;;;;;;5103757;28;20028;-37
2021/10/14 09:14:53;;;;;;;2.00;1.88;;;21.20;71.40;;;;;;5101093;28;20025;-37
2021/10/14 09:17:19;;;;;;;2.75;2.10;;;21.20;71.40;;;;;;5102114;28;20056;-37
2021/10/14 09:19:45;;;;;;;2.30;2.10;;;21.20;71.40;;;;;;5103075;28;20070;-37
2021/10/14 09:22:12;;;;;;;2.17;1.98;;;21.20;71.40;;;;;;5103483;28;20047;-37
2021/10/14 09:24:39;;;;;;;5.80;2.08;;;21.20;71.50;;;;;;5102919;28;20032;-37
2021/10/14 09:27:10;;;;;;;3.13;1.88;;;21.10;72.20;;;;;;5102993;28;20024;-37
2021/10/14 09:29:37;;;;;;;3.33;2.15;;;21.10;71.50;;;;;;5103447;28;20563;-37
2021/10/14 09:32:05;;;;;;;2.40;2.20;;;21.20;71.50;;;;;;5103225;28;20027;-37
2021/10/14 09:34:37;;;;;;;2.28;2.05;;;21.10;71.50;;;;;;5102979;28;20089;-37
2021/10/14 09:37:15;;;;;;;2.20;2.00;;;21.10;71.50;;;;;;5102972;28;20028;-37
2021/10/14 09:39:58;;;;;;;2.35;1.98;;;21.10;71.50;;;;;;5082963;28;20025;-37
2021/10/14 09:42:43;;;;;;;2.35;2.15;;;21.10;71.50;;;;;;5082813;28;20036;-37
2021/10/14 09:45:30;;;;;;;2.28;2.08;;;21.10;71.60;;;;;;5082864;28;20050;-37
2021/10/14 09:48:08;;;;;;;2.28;2.08;;;21.10;71.60;;;;;;5082765;28;20020;-37
2021/10/14 09:50:53;;;;;;;2.20;2.00;;;21.10;71.70;;;;;;5085329;28;20032;-37
2021/10/14 09:53:24;;;;;;;2.13;1.90;;;21.10;71.70;;;;;;5103006;28;20144;-37
2021/10/14 09:55:51;;;;;;;2.40;2.20;;;21.10;71.70;;;;;;5102590;28;20039;-37
2021/10/14 09:58:17;;;;;;;2.08;1.80;;;21.00;71.60;;;;;;5102663;28;20056;-37
2021/10/14 10:00:44;;;;;;;2.10;1.88;;;21.10;71.80;;;;;;5103107;28;20030;-37
2021/10/14 10:03:23;;;;;;;2.40;2.20;;;21.10;71.80;;;;;;5103019;28;20088;-37
2021/10/14 10:05:54;;;;;;;2.30;2.10;;;21.10;71.80;;;;;;5101164;28;20082;-37
2021/10/14 10:08:29;;;;;;;2.10;1.83;;;21.00;71.80;;;;;;5102677;28;20028;-37
2021/10/14 10:10:57;;;;;;;2.00;1.83;;;21.00;71.80;;;;;;5084526;28;20028;-37
2021/10/14 10:13:24;;;;;;;2.30;2.10;;;21.00;71.80;;;;;;5101293;28;20021;-37
2021/10/14 10:15:50;;;;;;;2.20;2.00;;;21.00;71.80;;;;;;5102767;28;20488;-37
2021/10/14 10:18:29;;;;;;;2.47;2.28;;;21.00;71.80;;;;;;5102572;28;20036;-37
2021/10/14 10:20:59;;;;;;;2.20;2.00;;;21.00;71.80;;;;;;5102369;28;20020;-37
2021/10/14 10:23:43;;;;;;;1.88;1.77;;;21.00;71.90;;;;;;5096240;28;20028;-37
2021/10/14 10:26:37;;;;;;;2.42;2.22;;;21.00;71.80;;;;;;5081953;28;20060;-37
2021/10/14 10:29:13;;;;;;;1.90;1.70;;;21.00;71.90;;;;;;5100816;28;20237;-37
2021/10/14 10:34:31;;;;;;;2.65;2.08;;;21.00;72.00;;;;;;5108664;28;20054;-37
2021/10/14 10:37:09;;;;;;;2.05;1.88;;;21.00;71.90;;;;;;5103270;28;20439;-37
2021/10/14 10:39:56;;;;;;;2.10;1.90;;;21.00;72.00;;;;;;5105231;28;20024;-37
2021/10/14 10:42:30;;;;;;;3.15;2.17;;;21.00;72.00;;;;;;5106485;28;20020;-37
2021/10/14 10:45:15;;;;;;;2.78;1.90;;;20.90;72.00;;;;;;5106139;28;20040;-37
2021/10/14 10:48:00;;;;;;;2.33;2.03;;;20.90;72.00;;;;;;5105921;28;20028;-37
2021/10/14 10:50:29;;;;;;;2.75;1.70;;;20.90;72.10;;;;;;5105895;28;20082;-37
2021/10/14 10:53:08;;;;;;;2.10;1.90;;;20.90;72.80;;;;;;5106109;28;20055;-37
2021/10/14 10:56:02;;;;;;;2.28;2.00;;;20.90;72.10;;;;;;5105599;28;20032;-37
2021/10/14 10:58:47;;;;;;;2.33;2.08;;;20.90;72.10;;;;;;5100843;28;20024;-37
2021/10/14 11:01:14;;;;;;;2.67;1.77;;;20.90;72.10;;;;;;5106067;28;20028;-37
2021/10/14 11:03:48;;;;;;;;;;;20.90;72.10;;;;;;5106321;28;20032;-37
2021/10/14 11:06:14;;;;;;;1.95;1.75;;;20.90;72.10;;;;;;5105295;28;19919;-37
2021/10/14 11:08:40;;;;;;;2.45;2.08;;;20.90;72.20;;;;;;5105572;28;20020;-37
2021/10/14 11:11:07;;;;;;;3.50;2.00;;;20.90;72.20;;;;;;5105202;28;20106;-37
2021/10/14 11:13:35;;;;;;;2.00;1.80;;;20.90;72.20;;;;;;5105711;28;20133;-37
2021/10/14 11:16:03;;;;;;;2.15;1.98;;;20.90;72.30;;;;;;5084018;28;20064;-37
2021/10/14 11:18:29;;;;;;;3.63;1.85;;;20.90;72.30;;;;;;5101016;28;20505;-37
2021/10/14 11:20:59;;;;;;;2.63;2.00;;;20.90;72.30;;;;;;5105310;28;20028;-37
2021/10/14 11:23:27;;;;;;;2.22;1.88;;;20.80;72.40;;;;;;5105400;28;20024;-37
2021/10/14 11:25:59;;;;;;;2.42;2.22;;;20.80;72.40;;;;;;5105437;28;20036;-37
2021/10/14 11:28:26;;;;;;;2.35;2.15;;;20.80;72.30;;;;;;5104944;28;20020;-37
2021/10/14 11:30:56;;;;;;;2.53;2.28;;;20.80;72.40;;;;;;5104042;28;20024;-37
2021/10/14 11:33:33;;;;;;;2.25;1.92;;;20.80;72.40;;;;;;5105338;28;20028;-37
2021/10/14 11:36:04;;;;;;;3.47;2.08;;;20.80;72.40;;;;;;5105183;28;20036;-37
2021/10/14 11:38:30;;;;;;;2.85;2.22;;;20.80;72.50;;;;;;5105148;28;20032;-37
2021/10/14 11:40:56;;;;;;;2.20;2.00;;;20.80;72.50;;;;;;5105260;28;20465;-37
2021/10/14 11:43:27;;;;;;;2.33;1.87;;;20.80;72.50;;;;;;5103467;28;20500;-37
2021/10/14 11:45:54;;;;;;;2.20;2.00;;;20.80;72.60;;;;;;5104972;28;20032;-37
2021/10/14 11:48:34;;;;;;;2.10;1.90;;;20.80;72.60;;;;;;5089010;28;20029;-37
2021/10/14 11:51:08;;;;;;;2.20;1.73;;;20.80;72.60;;;;;;5104408;28;20066;-37
2021/10/14 11:53:35;;;;;;;2.08;1.88;;;20.80;72.60;;;;;;5105169;28;20105;-37
2021/10/14 11:56:05;;;;;;;2.58;2.15;;;20.80;72.60;;;;;;5104593;28;20088;-37
2021/10/14 11:58:35;;;;;;;2.40;2.20;;;20.70;72.60;;;;;;5103973;28;20097;-37
2021/10/14 12:01:12;;;;;;;4.72;2.22;;;20.70;72.70;;;;;;5103554;28;20020;-37
2021/10/14 12:03:38;;;;;;;3.70;2.00;;;20.70;72.90;;;;;;5104610;28;20571;-37
2021/10/14 12:06:04;;;;;;;2.70;1.88;;;20.70;72.90;;;;;;5086207;28;21152;-37
2021/10/14 12:08:30;;;;;;;4.43;2.55;;;20.70;73.00;;;;;;5102754;28;20024;-37
2021/10/14 12:10:58;;;;;;;2.28;2.00;;;20.70;73.00;;;;;;5085963;28;20062;-37
2021/10/14 12:13:31;;;;;;;2.35;2.13;;;20.70;73.00;;;;;;5103124;28;20051;-37
2021/10/14 12:16:10;;;;;;;2.60;2.00;;;20.70;73.10;;;;;;5104267;28;20055;-37
2021/10/14 12:18:36;;;;;;;4.03;2.35;;;20.70;73.10;;;;;;5103732;28;20028;-37
2021/10/14 12:21:05;;;;;;;3.45;2.50;;;20.70;73.20;;;;;;5099484;28;20058;-37
2021/10/14 12:23:31;;;;;;;4.07;2.38;;;20.70;73.40;;;;;;5084133;28;20027;-37
2021/10/14 12:26:11;;;;;;;6.07;2.78;;;20.70;73.40;;;;;;5082648;28;20063;-37
2021/10/14 12:28:41;;;;;;;2.97;2.38;;;20.70;73.60;;;;;;5098625;28;20031;-39
2021/10/14 12:31:11;;;;;;;3.85;2.60;;;20.70;73.70;;;;;;5103836;28;20099;-37
2021/10/14 12:33:38;;;;;;;4.15;2.38;;;20.70;73.80;;;;;;5102816;28;20039;-37
2021/10/14 12:36:04;;;;;;;3.93;2.57;;;20.70;74.00;;;;;;5103569;28;20116;-37
2021/10/14 12:38:35;;;;;;;4.97;2.55;;;20.70;74.10;;;;;;5103944;28;20678;-37
2021/10/14 12:41:11;;;;;;;3.33;2.33;;;20.70;74.10;;;;;;5103458;28;20046;-36
2021/10/14 12:43:45;;;;;;;4.45;2.50;;;20.70;74.10;;;;;;5103995;28;20043;-37
2021/10/14 12:46:22;;;;;;;4.78;2.85;;;20.70;74.10;;;;;;5103129;28;20032;-37
2021/10/14 12:49:02;;;;;;;;;;;20.70;74.20;;;;;;5104157;28;20603;-37
2021/10/14 12:51:29;;;;;;;4.20;2.35;;;20.70;74.10;;;;;;5102736;28;19930;-37
2021/10/14 12:54:02;;;;;;;2.83;2.13;;;20.70;74.10;;;;;;5104002;28;20022;-37